aviador You're here:

CYDF Decoded Metar

DEER LAKE in NL, CANADA
Report Time2017-12-11 09:00:00
UTC Time2017-12-11 09:20:34
Flight Rules vfr VFR
Wind230° at 09 kt
W.Decomp.*RWY 25: 9.0 kt HW 0.3 kt RCW
W.Rank230° ranks 1
Current wind is below 230° avg. (9.8)
Visibility9999 m
Phenomena:Light Snow
Clouds:Broken 044 Hf
Expected CloudBase > 1,600 ft AGL from Temp-Dew spread
Ceiling4,400 ft
Temp-1°C (ISA -16)
Dew Point-5°C (75% RH)
AAT-6.8°C
QNH1006 hPa
Density Alt-1,572 ft
Elevation72 ft
Report Wrong Elevation
Raw Report
CYDF 110900Z 23009KT 12SM -SN BKN044 M01/M05 A2970 RMK SC7
SLP061=

Extra information for CYDF:More info

Metar Taf Metar & Taf Last 4 Metars F.Rules Stats Wind Profile Meteogram Temp Stats Airport Information Weather charts Add Link Nearby VenuesMetar ALERT Operation Metar Decoded Social comments